Latest Weather Observations for Mount Ginini

IDN60901

Issued at 4:41 am EST Friday 20 May 2022 (issued every 10 minutes, with the page automatically refreshed every 10 minutes)

About weather observations | Map of Canberra area stations | Latest observations for Canberra area | Other Formats
Station Details ID: 070349 Name: MOUNT GININI AWS Lat: -35.53 Lon: 148.77 Height: 1760.0 m
Data from the previous 72 hours. | See also: Recent months at Mount Ginini
Date/Time
EST
Temp
°C
App
Temp
°C
Dew
Point
°C
Rel
Hum
%
Delta-T
°C
Wind Press
QNH
hPa
Press
MSL
hPa
Rain since
9am
mm
Dir  Spd
km/h
Gust
km/h
Spd
kts
Gust
kts
20/04:30am -1.8 - - - - E 24 43 13 23 - - 0.0
20/04:00am -1.6 - - - - ESE 24 43 13 23 - - 0.0
20/03:30am -1.5 - - - - ESE 28 48 15 26 - - 0.0
20/03:15am -1.4 - - - - ESE 28 46 15 25 - - 0.0
20/03:00am -1.7 - - - - ESE 24 43 13 23 - - 0.0
20/02:30am -2.0 - - - - E 26 39 14 21 - - 0.0
20/02:00am -1.9 - - - - ESE 20 35 11 19 - - 0.0
20/01:30am -1.6 - - - - ESE 15 32 8 17 - - 0.0
20/01:00am -1.7 - - - - ESE 15 30 8 16 - - 0.0
20/12:30am -1.7 - - - - ESE 15 32 8 17 - - 0.0
20/12:00am -1.7 - - - - ESE 17 33 9 18 - - 0.0
 
Date/Time
EST
Temp
°C
App
Temp
°C
Dew
Point
°C
Rel
Hum
%
Delta-T
°C
Wind Press
QNH
hPa
Press
MSL
hPa
Rain since
9am
mm
Dir  Spd
km/h
Gust
km/h
Spd
kts
Gust
kts
19/11:30pm -1.7 - - - - ESE 13 33 7 18 - - 0.0
19/11:00pm -1.7 - - - - ESE 15 30 8 16 - - 0.0
19/10:30pm -1.7 - - - - ESE 9 22 5 12 - - 0.0
19/10:00pm -1.8 - - - - ESE 7 19 4 10 - - 0.0
19/09:30pm -0.8 - - - - ESE 7 24 4 13 - - 0.0
19/09:00pm -0.4 - - - - ESE 9 22 5 12 - - 0.0
19/08:30pm 0.4 - - - - SE 11 26 6 14 - - 0.0
19/08:00pm 0.9 - - - - ESE 7 22 4 12 - - 0.0
19/07:30pm 1.5 - - - - SE 9 24 5 13 - - 0.0
19/07:00pm 1.1 - - - - SE 7 17 4 9 - - 0.0
19/06:30pm 0.8 - - - - ESE 6 13 3 7 - - 0.0
19/06:00pm 1.4 - - - - ESE 4 11 2 6 - - 0.0
19/05:30pm 2.0 - - - - SE 9 19 5 10 - - 0.0
19/05:00pm 2.2 - - - - SE 6 11 3 6 - - 0.0
19/04:30pm 2.9 - - - - SE 6 11 3 6 - - 0.0
19/04:00pm 4.0 - - - - S 15 28 8 15 - - 0.0
19/03:30pm 4.6 - - - - S 4 9 2 5 - - 0.0
19/03:00pm 5.0 - - - - SSW 7 15 4 8 - - 0.0
19/02:30pm 5.0 - - - - SW 6 15 3 8 - - 0.0
19/02:00pm 5.1 - - - - SW 7 17 4 9 - - 0.0
19/01:30pm 4.9 - - - - SW 6 13 3 7 - - 0.0
19/01:00pm 5.1 - - - - WSW 6 11 3 6 - - 0.0
19/12:30pm 4.8 - - - - SSW 7 15 4 8 - - 0.0
19/12:00pm 4.5 - - - - SSW 6 13 3 7 - - 0.0
19/11:30am 3.8 - - - - SW 7 11 4 6 - - 0.0
19/11:00am 4.3 - - - - SSW 6 17 3 9 - - 0.0
19/10:30am 3.5 - - - - SSE 4 7 2 4 - - 0.0
19/10:00am 3.2 - - - - S 6 11 3 6 - - 0.0
19/09:30am 2.3 - - - - SSE 11 19 6 10 - - 0.0
19/09:00am 1.4 - - - - SSE 9 17 5 9 - - 0.0
19/08:30am 0.9 - - - - SSE 11 17 6 9 - - 0.0
19/08:00am -0.2 - - - - SE 6 11 3 6 - - 0.0
19/07:30am -2.1 - - - - SSW 17 26 9 14 - - 0.0
19/07:00am -2.6 - - - - SW 20 28 11 15 - - 0.0
19/06:30am -2.4 - - - - SW 22 33 12 18 - - 0.0
19/06:00am -2.6 - - - - SW 19 30 10 16 - - 0.0
19/05:30am -2.0 - - - - SSW 22 30 12 16 - - 0.0
19/05:00am -2.3 - - - - SSW 24 35 13 19 - - 0.0
19/04:30am -2.7 - - - - SW 24 35 13 19 - - 0.0
19/04:00am -2.7 - - - - SW 19 32 10 17 - - 0.0
19/03:30am -2.6 - - - - SW 19 30 10 16 - - 0.0
19/03:00am -2.3 - - - - SW 28 41 15 22 - - 0.0
19/02:30am -2.5 - - - - SW 20 30 11 16 - - 0.0
19/02:00am -2.4 - - - - WSW 24 35 13 19 - - 0.0
19/01:30am -2.4 - - - - SW 30 41 16 22 - - 0.0
19/01:00am -2.0 - - - - SW 30 43 16 23 - - 0.0
19/12:30am -1.9 - - - - SW 22 33 12 18 - - 0.0
19/12:00am -1.7 - - - - SW 20 35 11 19 - - 0.0
 
Date/Time
EST
Temp
°C
App
Temp
°C
Dew
Point
°C
Rel
Hum
%
Delta-T
°C
Wind Press
QNH
hPa
Press
MSL
hPa
Rain since
9am
mm
Dir  Spd
km/h
Gust
km/h
Spd
kts
Gust
kts
18/11:30pm -1.7 - - - - WSW 17 30 9 16 - - 0.0
18/11:00pm -1.8 - - - - SW 20 41 11 22 - - 0.0
18/10:30pm -1.7 - - - - SW 22 39 12 21 - - 0.0
18/10:00pm -1.8 - - - - SW 35 56 19 30 - - 0.0
18/09:50pm -1.8 - - - - SW 32 50 17 27 - - 0.0
18/09:30pm -1.8 - - - - SW 26 43 14 23 - - 0.0
18/09:05pm -1.7 - - - - SW 28 48 15 26 - - 0.0
18/09:00pm -1.8 - - - - SW 26 46 14 25 - - 0.0
18/08:30pm -1.7 - - - - WSW 28 46 15 25 - - 0.0
18/08:00pm -1.7 - - - - WSW 28 46 15 25 - - 0.0
18/07:42pm -1.6 - - - - WSW 28 52 15 28 - - 0.0
18/07:30pm -1.5 - - - - WSW 22 39 12 21 - - 0.0
18/07:00pm -1.2 - - - - WSW 19 33 10 18 - - 0.0
18/06:30pm -1.1 - - - - WSW 22 44 12 24 - - 0.0
18/06:00pm -1.0 - - - - WSW 22 41 12 22 - - 0.0
18/05:30pm -0.9 - - - - WSW 19 46 10 25 - - 0.0
18/05:00pm -0.9 - - - - WSW 19 37 10 20 - - 0.0
18/04:30pm 0.0 - - - - WSW 17 39 9 21 - - 0.0
18/04:00pm 0.4 - - - - WSW 20 39 11 21 - - 0.0
18/03:30pm 1.5 - - - - WSW 17 44 9 24 - - 0.0
18/03:00pm 1.9 - - - - WSW 26 52 14 28 - - 0.0
18/02:56pm 1.4 - - - - WSW 28 52 15 28 - - 0.0
18/02:30pm 1.1 - - - - W 22 48 12 26 - - 0.0
18/02:04pm -0.4 - - - - W 28 63 15 34 - - 0.0
18/02:00pm -0.5 - - - - WSW 26 63 14 34 - - 0.0
18/01:30pm 1.4 - - - - W 19 41 10 22 - - 0.0
18/01:02pm 1.4 - - - - W 28 56 15 30 - - 0.0
18/01:00pm 1.0 - - - - W 26 56 14 30 - - 0.0
18/12:30pm 1.1 - - - - W 32 63 17 34 - - 0.0
18/12:18pm 0.8 - - - - W 28 57 15 31 - - 0.0
18/12:00pm 1.0 - - - - W 22 54 12 29 - - 0.0
18/11:48am 0.9 - - - - W 28 50 15 27 - - 0.0
18/11:30am 1.0 - - - - W 24 48 13 26 - - 0.0
18/11:00am 0.6 - - - - W 28 63 15 34 - - 0.0
18/10:38am 0.4 - - - - W 28 54 15 29 - - 0.0
18/10:30am 0.5 - - - - W 26 52 14 28 - - 0.0
18/10:21am 0.2 - - - - W 28 59 15 32 - - 0.0
18/10:00am 0.2 - - - - W 22 46 12 25 - - 0.0
18/09:30am -0.1 - - - - W 28 52 15 28 - - 0.0
18/09:22am -0.1 - - - - W 28 56 15 30 - - 0.0
18/09:00am -0.1 - - - - W 22 56 12 30 - - 0.0
18/08:30am -0.4 - - - - W 28 52 15 28 - - 0.0
18/08:00am -0.7 - - - - W 30 65 16 35 - - 0.0
18/07:30am -1.0 - - - - W 32 56 17 30 - - 0.0
18/07:01am -1.0 - - - - W 28 57 15 31 - - 0.0
18/07:00am -1.0 - - - - W 26 50 14 27 - - 0.0
18/06:39am -0.7 - - - - W 28 52 15 28 - - 0.0
18/06:30am -0.8 - - - - W 24 59 13 32 - - 0.0
18/06:13am -0.7 - - - - W 28 46 15 25 - - 0.0
18/06:00am -0.7 - - - - W 26 54 14 29 - - 0.0
18/05:44am -0.7 - - - - W 28 56 15 30 - - 0.0
18/05:30am -0.8 - - - - W 26 57 14 31 - - 0.0
18/05:16am -0.8 - - - - W 28 52 15 28 - - 0.0
18/05:00am -0.9 - - - - W 20 54 11 29 - - 0.0
18/04:46am -0.8 - - - - W 28 48 15 26 - - 0.0
18/04:30am -0.8 - - - - W 26 46 14 25 - - 0.0
18/04:00am -0.8 - - - - W 28 48 15 26 - - 0.0
18/03:30am -1.0 - - - - W 28 48 15 26 - - 0.0
18/03:00am -0.9 - - - - W 28 52 15 28 - - 0.0
18/02:42am -1.1 - - - - W 28 61 15 33 - - 0.0
18/02:30am -1.2 - - - - W 24 48 13 26 - - 0.0
18/02:00am -1.2 - - - - W 20 44 11 24 - - 0.0
18/01:30am -1.3 - - - - W 15 37 8 20 - - 0.0
18/01:00am -1.1 - - - - W 17 37 9 20 - - 0.0
18/12:30am -1.0 - - - - W 17 37 9 20 - - 0.0
18/12:00am -0.9 - - - - W 17 35 9 19 - - 0.0
 
Date/Time
EST
Temp
°C
App
Temp
°C
Dew
Point
°C
Rel
Hum
%
Delta-T
°C
Wind Press
QNH
hPa
Press
MSL
hPa
Rain since
9am
mm
Dir  Spd
km/h
Gust
km/h
Spd
kts
Gust
kts
17/11:30pm -0.7 - - - - W 13 30 7 16 - - 0.0
17/11:00pm -0.5 - - - - WSW 17 32 9 17 - - 0.0
17/10:30pm -0.5 - - - - WSW 24 44 13 24 - - 0.0
17/10:00pm -0.6 - - - - WSW 24 46 13 25 - - 0.0
17/09:30pm -0.7 - - - - WSW 20 39 11 21 - - 0.0
17/09:00pm -0.7 - - - - WSW 24 48 13 26 - - 0.0
17/08:30pm -0.6 - - - - WSW 24 41 13 22 - - 0.0
17/08:00pm -0.7 - - - - WSW 22 41 12 22 - - 0.0
17/07:30pm -0.7 - - - - WSW 22 41 12 22 - - 0.0
17/07:00pm -0.5 - - - - WSW 20 43 11 23 - - 0.0
17/06:30pm -0.4 - - - - WSW 20 41 11 22 - - 0.0
17/06:00pm -0.2 - - - - WSW 22 39 12 21 - - 0.0
17/05:30pm 0.0 - - - - WSW 20 35 11 19 - - 0.0
17/05:00pm 0.2 - - - - WSW 20 37 11 20 - - 0.0
17/04:30pm 0.4 - - - - WSW 22 37 12 20 - - 0.0
17/04:00pm 0.9 - - - - W 22 41 12 22 - - 0.0
17/03:30pm 1.5 - - - - WSW 19 37 10 20 - - 0.0
17/03:00pm 2.2 - - - - W 20 37 11 20 - - 0.0
17/02:30pm 1.8 - - - - W 24 37 13 20 - - 0.0
17/02:00pm 2.8 - - - - W 26 41 14 22 - - 0.0
17/01:30pm 3.6 - - - - W 24 39 13 21 - - 0.0
17/01:00pm 4.1 - - - - W 20 39 11 21 - - 0.0
17/12:30pm 4.0 - - - - WSW 19 35 10 19 - - 0.0
17/12:00pm 4.1 - - - - WSW 17 32 9 17 - - 0.0
17/11:30am 4.1 - - - - W 13 28 7 15 - - 0.0
17/11:00am 3.3 - - - - W 17 35 9 19 - - 0.0
17/10:30am 2.9 - - - - W 20 37 11 20 - - 0.0
17/10:00am 1.8 - - - - WSW 19 39 10 21 - - 0.0
17/09:30am 1.0 - - - - WSW 17 30 9 16 - - 0.0
17/09:00am 0.1 - - - - WSW 17 30 9 16 - - 0.0
17/08:30am -0.4 - - - - WSW 17 35 9 19 - - 0.0
17/08:00am -0.8 - - - - WSW 20 48 11 26 - - 0.0
17/07:30am -0.9 - - - - WSW 24 56 13 30 - - 0.0
17/07:00am -1.0 - - - - WSW 26 46 14 25 - - 0.0
17/06:30am -0.9 - - - - WSW 24 39 13 21 - - 0.0
17/06:00am -0.7 - - - - WSW 24 44 13 24 - - 0.0
17/05:30am -0.4 - - - - WSW 22 39 12 21 - - 0.0
17/05:00am -0.3 - - - - WSW 24 44 13 24 - - 0.0

Latest Capital City Observations: Canberra | Sydney | Melbourne | Brisbane | Adelaide | Perth | Hobart | Darwin

Other formats

Comma delimited format used in spreadsheet applications
http://www.bom.gov.au/fwo/IDN60903/IDN60903.95925.axf

JavaScript Object Notation format (JSON) in row-major order
http://www.bom.gov.au/fwo/IDN60903/IDN60903.95925.json

Data quality

Most of these data are generated automatically and are frequently updated. Quality checks on data are not normally performed. It is possible for incorrect values to appear. Refer to information at About Latest Weather Observations and please check the disclaimer before using these data.